Terminal Aerodrome Forecast
Issued by NWS

Home | Current Version | Previous Version | Text Only | Print | Product List | Glossary On
Versions: 1 2 3 4 5 6 7 8 9 10 11 12 13 14 15 16 17 18
152
FTUS42 KMLB 162323
TAFSFB
TAF
KSFB 162323Z 1700/1724 12006KT P6SM SKC
     FM170800 00000KT 2SM BR SCT002
      TEMPO 1709/1713 1/2SM FG VV002
     FM171300 15006KT P6SM SCT035=

USA.gov is the U.S. government's official web portal to all federal, state and local government web resources and services.